Time;durP1;ratioP1;P1;durP2;ratioP2;P2;SDS_P1;SDS_P2;PMS_P1;PMS_P2;Temp;Humidity;BMP_temperature;BMP_pressure;BME280_temperature;BME280_humidity;BME280_pressure;Samples;Min_cycle;Max_cycle;Signal;HPM_P1;HPM_P2
2022/11/29 00:01:24;;;;;;;0.70;0.70;;;;;;;;;;5054828;28;20199;-83
2022/11/29 00:03:53;;;;;;;0.50;0.50;;;;;;;;;;5029227;28;20216;-83
2022/11/29 00:06:22;;;;;;;34.50;5.10;;;;;;;;;;5031567;28;20196;-83
2022/11/29 00:08:51;;;;;;;424.37;38.60;;;;;;;;;;5037126;28;20203;-83
2022/11/29 00:14:04;;;;;;;1.17;1.17;;;;;;;;;;5027940;28;20209;-83
2022/11/29 00:16:32;;;;;;;0.90;0.90;;;;;;;;;;5036627;28;20224;-83
2022/11/29 00:19:00;;;;;;;2.70;2.07;;;;;;;;;;5036990;28;20192;-83
2022/11/29 00:21:29;;;;;;;0.50;0.50;;;;;;;;;;5036826;28;20202;-83
2022/11/29 00:23:57;;;;;;;0.60;0.60;;;;;;;;;;5054416;28;20273;-83
2022/11/29 00:26:25;;;;;;;0.40;0.40;;;;;;;;;;5035882;28;20191;-83
2022/11/29 00:28:54;;;;;;;3.43;3.13;;;;;;;;;;5036938;28;20230;-83
2022/11/29 00:31:25;;;;;;;1.03;1.03;;;;;;;;;;5036296;28;20202;-83
2022/11/29 00:33:53;;;;;;;0.80;0.80;;;;;;;;;;5024604;28;20214;-83
2022/11/29 00:36:22;;;;;;;0.70;0.70;;;;;;;;;;5024857;28;20195;-83
2022/11/29 00:38:50;;;;;;;3.80;2.50;;;;;;;;;;5041505;28;20282;-83
2022/11/29 00:41:18;;;;;;;0.40;0.40;;;;;;;;;;5033066;28;20335;-83
2022/11/29 00:43:47;;;;;;;1.33;1.33;;;;;;;;;;5036388;28;20245;-83
2022/11/29 00:46:15;;;;;;;0.50;0.50;;;;;;;;;;5054150;28;20270;-83
2022/11/29 00:48:45;;;;;;;2.27;1.23;;;;;;;;;;5053970;28;20255;-83
2022/11/29 00:51:13;;;;;;;1.27;1.13;;;;;;;;;;5033340;28;20196;-83
2022/11/29 00:53:42;;;;;;;1.67;1.57;;;;;;;;;;5035946;28;20203;-83
2022/11/29 00:56:11;;;;;;;0.80;0.80;;;;;;;;;;5036380;28;20227;-83
2022/11/29 00:58:42;;;;;;;34.37;9.40;;;;;;;;;;5035371;28;20211;-83
2022/11/29 01:01:10;;;;;;;25.80;11.13;;;;;;;;;;5024033;28;20236;-83
2022/11/29 01:03:39;;;;;;;214.77;27.40;;;;;;;;;;5035157;28;20227;-83
2022/11/29 01:06:10;;;;;;;71.73;13.70;;;;;;;;;;5036185;28;20194;-83
2022/11/29 01:08:39;;;;;;;48.43;10.70;;;;;;;;;;5040648;28;20203;-83
2022/11/29 01:11:08;;;;;;;131.97;18.73;;;;;;;;;;5052355;28;20198;-83
2022/11/29 01:13:37;;;;;;;51.20;12.07;;;;;;;;;;5035836;28;20225;-83
2022/11/29 01:16:06;;;;;;;1.17;1.17;;;;;;;;;;5053386;28;20248;-83
2022/11/29 01:18:35;;;;;;;3.33;2.27;;;;;;;;;;5035903;28;20217;-83
2022/11/29 01:21:04;;;;;;;0.67;0.67;;;;;;;;;;5034753;28;20229;-83
2022/11/29 01:23:34;;;;;;;0.50;0.50;;;;;;;;;;5027293;28;20199;-83
2022/11/29 01:26:04;;;;;;;0.50;0.50;;;;;;;;;;5031595;28;20207;-83
2022/11/29 01:28:32;;;;;;;2.07;1.47;;;;;;;;;;5035352;28;20218;-83
2022/11/29 01:31:06;;;;;;;226.60;25.93;;;;;;;;;;5035126;28;20190;-83
2022/11/29 01:33:34;;;;;;;364.73;38.47;;;;;;;;;;5035791;28;20207;-83
2022/11/29 01:36:03;;;;;;;495.20;48.47;;;;;;;;;;5051868;28;20198;-83
2022/11/29 01:38:32;;;;;;;84.73;11.40;;;;;;;;;;5053303;28;20202;-83
2022/11/29 01:41:02;;;;;;;27.77;5.13;;;;;;;;;;5053024;28;20211;-83
2022/11/29 01:43:32;;;;;;;258.07;23.27;;;;;;;;;;5032055;28;20261;-83
2022/11/29 01:46:00;;;;;;;94.57;13.37;;;;;;;;;;5052123;28;20198;-83
2022/11/29 01:48:30;;;;;;;1.80;1.73;;;;;;;;;;5052929;28;20194;-83
2022/11/29 01:51:00;;;;;;;2.80;1.70;;;;;;;;;;5053007;28;20218;-83
2022/11/29 01:53:29;;;;;;;230.77;26.33;;;;;;;;;;5052727;28;20202;-83
2022/11/29 01:56:01;;;;;;;32.43;5.80;;;;;;;;;;5026387;28;20238;-83
2022/11/29 01:58:32;;;;;;;11.97;3.87;;;;;;;;;;5049551;28;20198;-83
2022/11/29 02:01:01;;;;;;;0.50;0.50;;;;;;;;;;5052920;28;20211;-83
2022/11/29 02:03:30;;;;;;;92.37;10.50;;;;;;;;;;5034887;28;20214;-83
2022/11/29 02:05:58;;;;;;;28.30;5.90;;;;;;;;;;5052823;28;20198;-83
2022/11/29 02:08:30;;;;;;;1.10;1.10;;;;;;;;;;5034859;28;20209;-83
2022/11/29 02:11:06;;;;;;;4.13;3.73;;;;;;;;;;5052939;28;20228;-82
2022/11/29 02:13:39;;;;;;;355.63;35.03;;;;;;;;;;5034998;28;20198;-83
2022/11/29 02:16:12;;;;;;;393.40;45.37;;;;;;;;;;5034526;28;20203;-83
2022/11/29 02:18:46;;;;;;;124.97;16.57;;;;;;;;;;5035267;28;20239;-82
2022/11/29 02:21:33;;;;;;;4.43;3.40;;;;;;;;;;5034053;28;20232;-83
2022/11/29 02:24:20;;;;;;;75.30;13.37;;;;;;;;;;5034836;28;20197;-82
2022/11/29 02:27:03;;;;;;;2.13;2.03;;;;;;;;;;5024729;28;20202;-83
2022/11/29 02:30:03;;;;;;;63.77;11.50;;;;;;;;;;5015757;28;20210;-83
2022/11/29 02:32:49;;;;;;;57.40;12.53;;;;;;;;;;5049552;28;20190;-83
2022/11/29 02:35:25;;;;;;;138.37;18.47;;;;;;;;;;5034939;28;20293;-83
2022/11/29 02:38:00;;;;;;;264.40;30.77;;;;;;;;;;5030782;28;20207;-83
2022/11/29 02:40:35;;;;;;;331.50;34.37;;;;;;;;;;5027210;28;20213;-83
2022/11/29 02:43:19;;;;;;;140.80;21.80;;;;;;;;;;5033449;28;20259;-83
2022/11/29 02:45:50;;;;;;;4.17;3.63;;;;;;;;;;5031437;28;20251;-83
2022/11/29 02:48:27;;;;;;;2.57;2.47;;;;;;;;;;5034220;28;20229;-83
2022/11/29 02:50:59;;;;;;;3.20;2.63;;;;;;;;;;5021871;28;20194;-83
2022/11/29 02:53:30;;;;;;;1.00;1.00;;;;;;;;;;5015347;28;20335;-83
2022/11/29 02:56:05;;;;;;;0.93;0.93;;;;;;;;;;5033955;28;20241;-83
2022/11/29 02:58:37;;;;;;;4.47;4.07;;;;;;;;;;5033561;28;20267;-83
2022/11/29 03:01:09;;;;;;;3.47;2.30;;;;;;;;;;5022867;28;20214;-83
2022/11/29 03:03:40;;;;;;;54.60;13.20;;;;;;;;;;5037716;28;20233;-83
2022/11/29 03:06:14;;;;;;;36.33;9.23;;;;;;;;;;5038020;28;20214;-82
2022/11/29 03:08:47;;;;;;;71.20;16.10;;;;;;;;;;5038415;28;20217;-82
2022/11/29 03:11:20;;;;;;;39.97;9.40;;;;;;;;;;5038433;28;20224;-82
2022/11/29 03:13:52;;;;;;;0.70;0.70;;;;;;;;;;5037028;28;20199;-82
2022/11/29 03:16:28;;;;;;;1.03;1.03;;;;;;;;;;5056166;28;20198;-82
2022/11/29 03:19:03;;;;;;;5.07;3.90;;;;;;;;;;5037564;28;20198;-82
2022/11/29 03:21:40;;;;;;;0.60;0.60;;;;;;;;;;5038028;28;20292;-83
2022/11/29 03:24:13;;;;;;;1.03;1.03;;;;;;;;;;5037500;28;20255;-82
2022/11/29 03:26:42;;;;;;;0.73;0.73;;;;;;;;;;5055806;28;20222;-82
2022/11/29 03:29:18;;;;;;;9.70;3.23;;;;;;;;;;5037809;28;20210;-82
2022/11/29 03:31:51;;;;;;;1.80;1.70;;;;;;;;;;5038035;28;20194;-82
2022/11/29 03:34:24;;;;;;;1.33;1.33;;;;;;;;;;5042141;28;20198;-82
2022/11/29 03:36:56;;;;;;;4.07;3.07;;;;;;;;;;5037984;28;20243;-82
2022/11/29 03:39:28;;;;;;;1.83;1.73;;;;;;;;;;5031459;28;20261;-82
2022/11/29 03:41:59;;;;;;;26.43;7.80;;;;;;;;;;5018055;28;20218;-82
2022/11/29 03:44:28;;;;;;;3.47;2.83;;;;;;;;;;5037692;28;20200;-82
2022/11/29 03:46:59;;;;;;;2.83;2.13;;;;;;;;;;5037138;28;20236;-83
2022/11/29 03:49:29;;;;;;;2.20;2.10;;;;;;;;;;5055588;28;20210;-82
2022/11/29 03:52:03;;;;;;;1.37;1.37;;;;;;;;;;5037035;28;20237;-82
2022/11/29 03:54:35;;;;;;;1.73;1.63;;;;;;;;;;5054998;28;20210;-82
2022/11/29 03:57:04;;;;;;;3.00;2.80;;;;;;;;;;5054549;28;20229;-82
2022/11/29 03:59:43;;;;;;;2.30;2.20;;;;;;;;;;5037155;28;20205;-82
2022/11/29 04:02:26;;;;;;;4.53;2.07;;;;;;;;;;5054599;28;20222;-82
2022/11/29 04:05:10;;;;;;;3.63;2.37;;;;;;;;;;5054449;28;20228;-82
2022/11/29 04:07:49;;;;;;;2.27;2.17;;;;;;;;;;5054815;28;20244;-82
2022/11/29 04:10:21;;;;;;;1.70;1.57;;;;;;;;;;5054154;28;20212;-82
2022/11/29 04:12:57;;;;;;;0.90;0.90;;;;;;;;;;5036892;28;20229;-82
2022/11/29 04:15:40;;;;;;;1.73;1.63;;;;;;;;;;5022184;28;20198;-82
2022/11/29 04:18:19;;;;;;;1.23;1.23;;;;;;;;;;5034182;28;20217;-82
2022/11/29 04:20:56;;;;;;;0.80;0.80;;;;;;;;;;5042695;28;20209;-82
2022/11/29 04:23:46;;;;;;;2.00;1.90;;;;;;;;;;5054859;28;20194;-82
2022/11/29 04:26:29;;;;;;;1.23;1.23;;;;;;;;;;5054828;28;20252;-82
2022/11/29 04:29:18;;;;;;;1.83;1.83;;;;;;;;;;5036766;28;20202;-83
2022/11/29 04:31:58;;;;;;;2.90;2.53;;;;;;;;;;5054759;28;20186;-83
2022/11/29 04:34:36;;;;;;;3.37;3.17;;;;;;;;;;5035902;28;20190;-83
2022/11/29 04:37:19;;;;;;;2.70;2.60;;;;;;;;;;5036677;28;20206;-82
2022/11/29 04:39:55;;;;;;;1.33;1.33;;;;;;;;;;5017034;28;20230;-83
2022/11/29 04:42:33;;;;;;;0.80;0.80;;;;;;;;;;5050631;28;20226;-83
2022/11/29 04:45:19;;;;;;;0.70;0.70;;;;;;;;;;5053846;28;20210;-83
2022/11/29 04:47:53;;;;;;;1.10;1.10;;;;;;;;;;5027326;28;20248;-83
2022/11/29 04:50:27;;;;;;;0.90;0.90;;;;;;;;;;5035655;28;20260;-83
2022/11/29 04:53:03;;;;;;;1.03;1.03;;;;;;;;;;5036328;28;20189;-82
2022/11/29 04:55:37;;;;;;;3.00;2.20;;;;;;;;;;5035872;28;20194;-83
2022/11/29 04:58:11;;;;;;;1.63;1.53;;;;;;;;;;5036177;28;20205;-83
2022/11/29 05:00:43;;;;;;;1.33;1.33;;;;;;;;;;5023407;28;20290;-83
2022/11/29 05:03:17;;;;;;;2.30;2.30;;;;;;;;;;5052232;28;20214;-82
2022/11/29 05:05:50;;;;;;;0.60;0.60;;;;;;;;;;5025753;28;20272;-83
2022/11/29 05:08:24;;;;;;;1.13;1.13;;;;;;;;;;5035595;28;20216;-83
2022/11/29 05:11:04;;;;;;;7.73;4.20;;;;;;;;;;5035939;28;20276;-83
2022/11/29 05:13:38;;;;;;;0.90;0.90;;;;;;;;;;5053575;28;20194;-83
2022/11/29 05:16:20;;;;;;;2.30;2.20;;;;;;;;;;5053388;28;20208;-83
2022/11/29 05:19:07;;;;;;;2.17;2.07;;;;;;;;;;5053949;28;20206;-83
2022/11/29 05:21:41;;;;;;;4.33;2.20;;;;;;;;;;5022809;28;20208;-83
2022/11/29 05:24:15;;;;;;;2.77;2.63;;;;;;;;;;5053034;28;20224;-83
2022/11/29 05:26:50;;;;;;;2.03;1.93;;;;;;;;;;5035891;28;20201;-83
2022/11/29 05:29:22;;;;;;;2.03;1.80;;;;;;;;;;5035682;28;20202;-83
2022/11/29 05:31:56;;;;;;;1.57;1.57;;;;;;;;;;5043637;28;20215;-82
2022/11/29 05:34:31;;;;;;;0.93;0.93;;;;;;;;;;5038337;28;20269;-83
2022/11/29 05:37:08;;;;;;;2.43;2.33;;;;;;;;;;5053793;28;20208;-83
2022/11/29 05:39:40;;;;;;;1.63;1.53;;;;;;;;;;5031550;28;20294;-83
2022/11/29 05:42:20;;;;;;;14.50;3.63;;;;;;;;;;5035141;28;20240;-83
2022/11/29 05:44:51;;;;;;;2.37;2.30;;;;;;;;;;5025029;28;20286;-82
2022/11/29 05:47:22;;;;;;;0.67;0.67;;;;;;;;;;5033241;28;20198;-83
2022/11/29 05:50:01;;;;;;;0.60;0.60;;;;;;;;;;5053052;28;20198;-83
2022/11/29 05:52:37;;;;;;;0.83;0.83;;;;;;;;;;5028857;28;20191;-83
2022/11/29 05:55:17;;;;;;;0.87;0.87;;;;;;;;;;5029850;28;20216;-83
2022/11/29 05:57:53;;;;;;;3.40;1.70;;;;;;;;;;5035109;28;20244;-82
2022/11/29 06:00:22;;;;;;;0.77;0.77;;;;;;;;;;5053231;28;20277;-83
2022/11/29 06:02:54;;;;;;;2.13;1.90;;;;;;;;;;5035420;28;20229;-83
2022/11/29 06:05:27;;;;;;;0.80;0.80;;;;;;;;;;5034929;28;20237;-83
2022/11/29 06:07:59;;;;;;;1.50;1.40;;;;;;;;;;5022132;28;20199;-83
2022/11/29 06:10:31;;;;;;;0.63;0.63;;;;;;;;;;5027571;28;20285;-83
2022/11/29 06:13:08;;;;;;;1.33;1.33;;;;;;;;;;5031041;28;20182;-83
2022/11/29 06:15:58;;;;;;;1.63;1.63;;;;;;;;;;5035173;28;20205;-83
2022/11/29 06:18:38;;;;;;;0.80;0.80;;;;;;;;;;4999604;28;20211;-82
2022/11/29 06:21:13;;;;;;;0.93;0.93;;;;;;;;;;5035748;28;20194;-82
2022/11/29 06:23:48;;;;;;;0.70;0.70;;;;;;;;;;5035154;28;20263;-82
2022/11/29 06:26:28;;;;;;;4.33;3.40;;;;;;;;;;5018606;28;20202;-83
2022/11/29 06:29:01;;;;;;;0.80;0.80;;;;;;;;;;5028967;28;20211;-83
2022/11/29 06:31:32;;;;;;;3.93;3.73;;;;;;;;;;5047021;28;20279;-83
2022/11/29 06:34:03;;;;;;;0.70;0.70;;;;;;;;;;5034291;28;20282;-82
2022/11/29 06:36:32;;;;;;;0.60;0.60;;;;;;;;;;5035093;28;20198;-83
2022/11/29 06:39:01;;;;;;;1.37;1.37;;;;;;;;;;5038869;28;20231;-83
2022/11/29 06:41:29;;;;;;;0.70;0.70;;;;;;;;;;5038802;28;20204;-83
2022/11/29 06:43:59;;;;;;;1.43;1.43;;;;;;;;;;5054562;28;20210;-83
2022/11/29 06:46:36;;;;;;;1.57;1.57;;;;;;;;;;5028461;28;20254;-83
2022/11/29 06:49:09;;;;;;;0.70;0.70;;;;;;;;;;5054901;28;20204;-84
2022/11/29 06:51:44;;;;;;;1.33;1.30;;;;;;;;;;5056447;28;20275;-83
2022/11/29 06:54:18;;;;;;;3.07;2.77;;;;;;;;;;5044752;28;20193;-83
2022/11/29 06:56:50;;;;;;;9.40;6.87;;;;;;;;;;5061063;28;20332;-83
2022/11/29 06:59:28;;;;;;;1.90;1.80;;;;;;;;;;5056386;28;20254;-82
2022/11/29 07:02:01;;;;;;;9.03;5.80;;;;;;;;;;5038494;28;20210;-82
2022/11/29 07:04:38;;;;;;;9.03;6.60;;;;;;;;;;5038575;28;20288;-83
2022/11/29 07:07:15;;;;;;;16.00;11.47;;;;;;;;;;5026981;28;20202;-82
2022/11/29 07:09:43;;;;;;;8.00;6.77;;;;;;;;;;5037454;28;20230;-81
2022/11/29 07:12:12;;;;;;;2.73;2.53;;;;;;;;;;5047149;28;20211;-81
2022/11/29 07:14:42;;;;;;;7.30;5.83;;;;;;;;;;5034143;28;20190;-81
2022/11/29 07:17:16;;;;;;;1.97;1.87;;;;;;;;;;5038307;28;20198;-81
2022/11/29 07:19:49;;;;;;;17.87;12.47;;;;;;;;;;5037483;28;20305;-82
2022/11/29 07:22:32;;;;;;;15.33;11.07;;;;;;;;;;5055033;28;20199;-81
2022/11/29 07:25:02;;;;;;;21.37;14.30;;;;;;;;;;5025706;28;20233;-82
2022/11/29 07:27:34;;;;;;;17.97;12.30;;;;;;;;;;5036944;28;20202;-82
2022/11/29 07:30:14;;;;;;;15.57;12.27;;;;;;;;;;5038047;28;20206;-82
2022/11/29 07:32:48;;;;;;;4.20;3.00;;;;;;;;;;5055227;28;20226;-82
2022/11/29 07:35:25;;;;;;;13.17;10.30;;;;;;;;;;5038110;28;20260;-82
2022/11/29 07:37:57;;;;;;;1.33;1.33;;;;;;;;;;5024503;28;20210;-82
2022/11/29 07:40:32;;;;;;;5.43;4.63;;;;;;;;;;5037514;28;20203;-82
2022/11/29 07:43:13;;;;;;;4.17;3.87;;;;;;;;;;5037604;28;20228;-82
2022/11/29 07:45:44;;;;;;;2.77;2.60;;;;;;;;;;5033035;28;20285;-82
2022/11/29 07:48:13;;;;;;;3.73;3.53;;;;;;;;;;5029386;28;20222;-82
2022/11/29 07:50:42;;;;;;;1.87;1.77;;;;;;;;;;5054598;28;20202;-81
2022/11/29 07:53:11;;;;;;;9.83;6.13;;;;;;;;;;5042482;28;20191;-81
2022/11/29 07:55:40;;;;;;;10.23;7.60;;;;;;;;;;5037167;28;20233;-82
2022/11/29 07:58:10;;;;;;;15.13;9.43;;;;;;;;;;5024471;28;20334;-82
2022/11/29 08:00:39;;;;;;;6.70;4.27;;;;;;;;;;5024084;28;20201;-82
2022/11/29 08:03:09;;;;;;;9.07;4.27;;;;;;;;;;5023595;28;20294;-81
2022/11/29 08:05:38;;;;;;;1.63;1.53;;;;;;;;;;5037545;28;20194;-81
2022/11/29 08:08:07;;;;;;;7.37;4.53;;;;;;;;;;5037093;28;20265;-82
2022/11/29 08:10:35;;;;;;;1.20;1.20;;;;;;;;;;5046245;28;20281;-81
2022/11/29 08:13:06;;;;;;;2.40;2.30;;;;;;;;;;5050589;28;20202;-82
2022/11/29 08:15:35;;;;;;;1.03;1.03;;;;;;;;;;5036881;28;20202;-81
2022/11/29 08:18:04;;;;;;;0.70;0.70;;;;;;;;;;5041051;28;20205;-81
2022/11/29 08:20:34;;;;;;;1.70;1.27;;;;;;;;;;5054498;28;20202;-81
2022/11/29 08:23:02;;;;;;;3.60;3.30;;;;;;;;;;5049928;28;20206;-81
2022/11/29 08:25:31;;;;;;;0.80;0.80;;;;;;;;;;5036582;28;20214;-80
2022/11/29 08:27:59;;;;;;;1.10;1.10;;;;;;;;;;5033628;28;20231;-81
2022/11/29 08:30:28;;;;;;;0.60;0.60;;;;;;;;;;5054514;28;20194;-81
2022/11/29 08:32:57;;;;;;;1.60;1.50;;;;;;;;;;5054251;28;20229;-81
2022/11/29 08:35:25;;;;;;;1.10;1.10;;;;;;;;;;5053275;28;20195;-81
2022/11/29 08:37:55;;;;;;;0.93;0.93;;;;;;;;;;5054186;28;20202;-82
2022/11/29 08:40:24;;;;;;;1.23;1.23;;;;;;;;;;5052930;28;20202;-81
2022/11/29 08:42:52;;;;;;;0.87;0.87;;;;;;;;;;5042750;28;20198;-81
2022/11/29 08:45:20;;;;;;;0.90;0.90;;;;;;;;;;5040722;28;20272;-81
2022/11/29 08:47:49;;;;;;;1.90;1.67;;;;;;;;;;5034819;28;20213;-81
2022/11/29 08:50:18;;;;;;;5.03;3.23;;;;;;;;;;5036046;28;20264;-81
2022/11/29 08:55:39;;;;;;;9.17;5.87;;;;;;;;;;5024409;28;20273;-80
2022/11/29 08:58:08;;;;;;;8.73;6.60;;;;;;;;;;5010974;28;20286;-81
2022/11/29 09:00:36;;;;;;;5.63;4.23;;;;;;;;;;5032788;28;20221;-78
2022/11/29 09:05:53;;;;;;;13.00;9.37;;;;;;;;;;5028362;28;20208;-80
2022/11/29 09:08:22;;;;;;;19.00;12.60;;;;;;;;;;5011690;28;20207;-80
2022/11/29 09:10:53;;;;;;;9.20;8.23;;;;;;;;;;5013896;28;20198;-81
2022/11/29 09:13:22;;;;;;;6.90;5.47;;;;;;;;;;5021350;28;20196;-80
2022/11/29 09:15:50;;;;;;;12.13;7.40;;;;;;;;;;5003393;28;20346;-82
2022/11/29 09:18:18;;;;;;;19.50;9.40;;;;;;;;;;5020795;28;20213;-80
2022/11/29 09:20:47;;;;;;;10.07;7.70;;;;;;;;;;5002445;28;20199;-79
2022/11/29 09:23:15;;;;;;;8.37;6.43;;;;;;;;;;5004010;28;20294;-79
2022/11/29 09:25:48;;;;;;;6.00;5.43;;;;;;;;;;5011686;28;20229;-80
2022/11/29 09:28:20;;;;;;;10.57;8.43;;;;;;;;;;5025637;28;20203;-81
2022/11/29 09:30:49;;;;;;;12.07;8.70;;;;;;;;;;5013487;28;20256;-80
2022/11/29 09:33:17;;;;;;;13.00;9.20;;;;;;;;;;5010786;28;20293;-81
2022/11/29 09:35:46;;;;;;;22.17;12.53;;;;;;;;;;5000651;28;20206;-81
2022/11/29 09:38:15;;;;;;;17.13;11.77;;;;;;;;;;5015347;28;20203;-82
2022/11/29 09:40:48;;;;;;;18.47;13.67;;;;;;;;;;5005833;28;20202;-81
2022/11/29 09:43:24;;;;;;;11.23;8.33;;;;;;;;;;5028181;28;20233;-82
2022/11/29 09:45:57;;;;;;;5.37;5.07;;;;;;;;;;5022487;28;20214;-82
2022/11/29 09:48:33;;;;;;;8.10;6.97;;;;;;;;;;5021324;28;20203;-83
2022/11/29 09:51:07;;;;;;;4.33;3.90;;;;;;;;;;5006824;28;20206;-81
2022/11/29 09:53:42;;;;;;;5.07;4.57;;;;;;;;;;5009942;28;20234;-81
2022/11/29 09:56:14;;;;;;;8.57;7.20;;;;;;;;;;5013960;28;20244;-81
2022/11/29 09:58:48;;;;;;;9.07;7.17;;;;;;;;;;5042272;28;20198;-82
2022/11/29 10:01:20;;;;;;;13.90;10.43;;;;;;;;;;5028424;28;20206;-82
2022/11/29 10:03:51;;;;;;;11.03;7.67;;;;;;;;;;5023957;28;20233;-81
2022/11/29 10:06:23;;;;;;;17.23;10.33;;;;;;;;;;5024715;28;20199;-81
2022/11/29 10:08:54;;;;;;;11.83;7.97;;;;;;;;;;5024835;28;20202;-82
2022/11/29 10:11:27;;;;;;;18.20;13.53;;;;;;;;;;5033206;28;20263;-82
2022/11/29 10:13:59;;;;;;;4.27;3.70;;;;;;;;;;5036117;28;20270;-80
2022/11/29 10:16:34;;;;;;;27.97;17.13;;;;;;;;;;5025823;28;20229;-81
2022/11/29 10:19:05;;;;;;;20.97;12.73;;;;;;;;;;5035654;28;20201;-81
2022/11/29 10:21:35;;;;;;;15.70;9.67;;;;;;;;;;5036686;28;20284;-81
2022/11/29 10:24:05;;;;;;;2.20;2.10;;;;;;;;;;5053646;28;20206;-81
2022/11/29 10:26:34;;;;;;;9.20;5.17;;;;;;;;;;5053760;28;20202;-82
2022/11/29 10:29:04;;;;;;;12.47;8.67;;;;;;;;;;5050410;28;20252;-81
2022/11/29 10:31:34;;;;;;;10.23;5.37;;;;;;;;;;5038342;28;20282;-81
2022/11/29 10:34:08;;;;;;;1.00;0.67;;;;;;;;;;5029597;28;20284;-83
2022/11/29 10:36:43;;;;;;;15.20;10.67;;;;;;;;;;5032458;28;20283;-82
2022/11/29 10:39:14;;;;;;;3.33;3.07;;;;;;;;;;5030216;28;20233;-82
2022/11/29 10:41:42;;;;;;;1.70;1.60;;;;;;;;;;5035596;28;20285;-81
2022/11/29 10:44:14;;;;;;;0.60;0.60;;;;;;;;;;5053232;28;20198;-80
2022/11/29 10:46:43;;;;;;;0.80;0.80;;;;;;;;;;5033682;28;20262;-80
2022/11/29 10:49:13;;;;;;;0.50;0.50;;;;;;;;;;5023057;28;20250;-82
2022/11/29 10:51:42;;;;;;;10.20;4.87;;;;;;;;;;5026960;28;20198;-80
2022/11/29 10:54:20;;;;;;;8.83;7.93;;;;;;;;;;5043330;28;20361;-80
2022/11/29 10:56:49;;;;;;;5.27;4.03;;;;;;;;;;5018600;28;20296;-80
2022/11/29 10:59:23;;;;;;;8.37;3.33;;;;;;;;;;5019875;28;20193;-81
2022/11/29 11:01:52;;;;;;;0.80;0.80;;;;;;;;;;5011192;28;20204;-82
2022/11/29 11:04:27;;;;;;;1.23;1.23;;;;;;;;;;5010179;28;20227;-81
2022/11/29 11:06:58;;;;;;;9.47;6.13;;;;;;;;;;5009672;28;20230;-82
2022/11/29 11:09:31;;;;;;;4.07;3.63;;;;;;;;;;5013958;28;20208;-81
2022/11/29 11:12:01;;;;;;;0.60;0.60;;;;;;;;;;5009827;28;20226;-82
2022/11/29 11:14:31;;;;;;;3.40;3.13;;;;;;;;;;5026780;28;20205;-83
2022/11/29 11:17:15;;;;;;;2.97;2.03;;;;;;;;;;5011882;28;20268;-82
2022/11/29 11:19:54;;;;;;;5.00;4.60;;;;;;;;;;5007718;28;20295;-82
2022/11/29 11:22:23;;;;;;;1.23;1.23;;;;;;;;;;5032678;28;20300;-81
2022/11/29 11:24:57;;;;;;;0.50;0.50;;;;;;;;;;5013188;28;20208;-80
2022/11/29 11:27:33;;;;;;;1.33;1.33;;;;;;;;;;5009416;28;20201;-81
2022/11/29 11:30:04;;;;;;;1.53;1.53;;;;;;;;;;5005489;28;20193;-81
2022/11/29 11:32:32;;;;;;;3.37;2.67;;;;;;;;;;5030759;28;20220;-80
2022/11/29 11:35:02;;;;;;;0.40;0.40;;;;;;;;;;5026786;28;20225;-80
2022/11/29 11:37:32;;;;;;;2.33;2.30;;;;;;;;;;5008627;28;20206;-81
2022/11/29 11:40:02;;;;;;;1.60;1.60;;;;;;;;;;5024591;28;20205;-81
2022/11/29 11:42:39;;;;;;;0.73;0.73;;;;;;;;;;5008532;28;20205;-84
2022/11/29 11:45:27;;;;;;;28.83;26.90;;;;;;;;;;5009158;28;20226;-84
2022/11/29 11:47:57;;;;;;;2.17;2.07;;;;;;;;;;5005574;28;20198;-81
2022/11/29 11:50:28;;;;;;;0.50;0.50;;;;;;;;;;5007289;28;20206;-84
2022/11/29 11:52:57;;;;;;;1.00;1.00;;;;;;;;;;5009717;28;20206;-83
2022/11/29 11:55:30;;;;;;;0.40;0.40;;;;;;;;;;5009588;28;20206;-81
2022/11/29 11:58:00;;;;;;;0.70;0.70;;;;;;;;;;5025844;28;20230;-82
2022/11/29 12:00:48;;;;;;;0.40;0.40;;;;;;;;;;5024306;28;20202;-82
2022/11/29 12:03:40;;;;;;;5.70;3.67;;;;;;;;;;5023182;28;20226;-81
2022/11/29 12:06:24;;;;;;;2.03;1.93;;;;;;;;;;5026552;28;20229;-83
2022/11/29 12:08:55;;;;;;;0.47;0.47;;;;;;;;;;5022787;28;20210;-81
2022/11/29 12:11:24;;;;;;;1.00;1.00;;;;;;;;;;5025883;28;20203;-82
2022/11/29 12:13:54;;;;;;;2.80;1.03;;;;;;;;;;5039492;28;20209;-83
2022/11/29 12:16:27;;;;;;;0.73;0.73;;;;;;;;;;5039827;28;20210;-82
2022/11/29 12:18:59;;;;;;;0.80;0.80;;;;;;;;;;5026371;28;20270;-83
2022/11/29 12:21:29;;;;;;;0.97;0.97;;;;;;;;;;5028557;28;20195;-83
2022/11/29 12:23:59;;;;;;;1.43;1.33;;;;;;;;;;5032783;28;20213;-82
2022/11/29 12:26:30;;;;;;;2.53;2.43;;;;;;;;;;5031092;28;20206;-82
2022/11/29 12:29:21;;;;;;;3.23;2.93;;;;;;;;;;5029463;28;20264;-81
2022/11/29 12:31:58;;;;;;;9.53;2.43;;;;;;;;;;5031808;28;20210;-81
2022/11/29 12:34:32;;;;;;;1.13;1.13;;;;;;;;;;5029044;28;20204;-82
2022/11/29 12:37:04;;;;;;;5.63;2.67;;;;;;;;;;5030804;28;20201;-82
2022/11/29 12:39:39;;;;;;;1.90;1.27;;;;;;;;;;5044249;28;20211;-82
2022/11/29 12:42:13;;;;;;;4.80;2.07;;;;;;;;;;5042116;28;20202;-81
2022/11/29 12:44:49;;;;;;;1.60;1.53;;;;;;;;;;5028347;28;20316;-81
2022/11/29 12:47:24;;;;;;;4.33;1.87;;;;;;;;;;5025809;28;20214;-83
2022/11/29 12:50:18;;;;;;;2.33;1.23;;;;;;;;;;5045318;28;20212;-83
2022/11/29 12:52:50;;;;;;;3.30;1.73;;;;;;;;;;5027187;28;20206;-82
2022/11/29 12:55:20;;;;;;;1.93;1.50;;;;;;;;;;5026540;28;20202;-82
2022/11/29 12:57:54;;;;;;;1.63;1.53;;;;;;;;;;5031215;28;20244;-83
2022/11/29 13:00:23;;;;;;;3.43;3.07;;;;;;;;;;5044772;28;20205;-83
2022/11/29 13:03:03;;;;;;;8.50;2.20;;;;;;;;;;5031124;28;20202;-82
2022/11/29 13:05:38;;;;;;;3.70;1.70;;;;;;;;;;5029111;28;20194;-82
2022/11/29 13:08:14;;;;;;;1.60;0.70;;;;;;;;;;5027809;28;20247;-84
2022/11/29 13:10:49;;;;;;;3.63;0.77;;;;;;;;;;5030565;28;20292;-82
2022/11/29 13:13:22;;;;;;;2.47;1.50;;;;;;;;;;5046960;28;20209;-83
2022/11/29 13:15:55;;;;;;;3.90;1.87;;;;;;;;;;5043167;28;20205;-81
2022/11/29 13:18:30;;;;;;;1.20;1.20;;;;;;;;;;5024257;28;20195;-84
2022/11/29 13:21:00;;;;;;;0.67;0.67;;;;;;;;;;5021463;28;20269;-82
2022/11/29 13:23:33;;;;;;;1.03;1.03;;;;;;;;;;5027107;28;20197;-81
2022/11/29 13:26:22;;;;;;;2.20;1.87;;;;;;;;;;5023537;28;20226;-85
2022/11/29 13:28:51;;;;;;;7.10;2.10;;;;;;;;;;5027813;28;20236;-83
2022/11/29 13:31:21;;;;;;;1.10;1.10;;;;;;;;;;5020085;28;20210;-85
2022/11/29 13:34:01;;;;;;;1.20;1.13;;;;;;;;;;5020928;28;20225;-86
2022/11/29 13:36:35;;;;;;;4.30;2.07;;;;;;;;;;5024495;28;20657;-84
2022/11/29 13:39:08;;;;;;;3.87;1.10;;;;;;;;;;5024814;28;20299;-85
2022/11/29 13:41:42;;;;;;;0.87;0.80;;;;;;;;;;5021281;28;20208;-84
2022/11/29 13:44:16;;;;;;;1.10;1.00;;;;;;;;;;5028803;28;20204;-84
2022/11/29 13:46:47;;;;;;;2.87;2.03;;;;;;;;;;5024732;28;20318;-85
2022/11/29 13:49:22;;;;;;;1.70;1.07;;;;;;;;;;5023470;28;20271;-82
2022/11/29 13:52:04;;;;;;;0.90;0.90;;;;;;;;;;5020715;28;20201;-83
2022/11/29 13:54:34;;;;;;;1.37;1.33;;;;;;;;;;5026667;28;20229;-83
2022/11/29 13:57:04;;;;;;;2.73;1.00;;;;;;;;;;5012438;28;20242;-84
2022/11/29 13:59:34;;;;;;;0.83;0.83;;;;;;;;;;5030007;28;20325;-83
2022/11/29 14:02:02;;;;;;;2.10;1.37;;;;;;;;;;5021356;28;20244;-84
2022/11/29 14:04:35;;;;;;;0.60;0.60;;;;;;;;;;5022356;28;20230;-82
2022/11/29 14:07:08;;;;;;;3.40;0.67;;;;;;;;;;5039984;28;20222;-84
2022/11/29 14:09:48;;;;;;;2.83;0.80;;;;;;;;;;5031463;28;20224;-83
2022/11/29 14:12:26;;;;;;;0.70;0.70;;;;;;;;;;5028540;28;20204;-83
2022/11/29 14:14:57;;;;;;;0.70;0.70;;;;;;;;;;5022142;28;20327;-84
2022/11/29 14:17:33;;;;;;;0.57;0.57;;;;;;;;;;5030913;28;20219;-83
2022/11/29 14:20:21;;;;;;;0.83;0.57;;;;;;;;;;5032759;28;20209;-82
2022/11/29 14:23:04;;;;;;;0.50;0.50;;;;;;;;;;5043502;28;20206;-83
2022/11/29 14:25:34;;;;;;;0.93;0.93;;;;;;;;;;5030061;28;20220;-81
2022/11/29 14:28:30;;;;;;;0.83;0.83;;;;;;;;;;5029764;28;20214;-83
2022/11/29 14:31:01;;;;;;;0.50;0.50;;;;;;;;;;5027422;28;20230;-83
2022/11/29 14:33:45;;;;;;;0.40;0.40;;;;;;;;;;5027605;28;20232;-83
2022/11/29 14:36:34;;;;;;;0.73;0.73;;;;;;;;;;5017433;28;20210;-82
2022/11/29 14:39:11;;;;;;;0.50;0.50;;;;;;;;;;5017278;28;20256;-83
2022/11/29 14:41:49;;;;;;;1.17;1.07;;;;;;;;;;5024498;28;20290;-82
2022/11/29 14:44:19;;;;;;;0.70;0.70;;;;;;;;;;5040116;28;20223;-82
2022/11/29 14:46:48;;;;;;;0.50;0.50;;;;;;;;;;5042759;28;20313;-83
2022/11/29 14:49:46;;;;;;;0.70;0.70;;;;;;;;;;5026660;28;20301;-83
2022/11/29 14:52:20;;;;;;;0.80;0.80;;;;;;;;;;5028885;28;20257;-83
2022/11/29 14:54:53;;;;;;;1.37;1.33;;;;;;;;;;5025891;28;20227;-84
2022/11/29 14:57:42;;;;;;;5.73;5.50;;;;;;;;;;5036980;28;20232;-84
2022/11/29 15:00:14;;;;;;;2.33;1.43;;;;;;;;;;5048744;28;20213;-82
2022/11/29 15:02:45;;;;;;;0.50;0.50;;;;;;;;;;5031534;28;20232;-83
2022/11/29 15:05:15;;;;;;;2.10;1.90;;;;;;;;;;5027247;28;20242;-84
2022/11/29 15:07:46;;;;;;;0.50;0.50;;;;;;;;;;5047398;28;20307;-82
2022/11/29 15:10:18;;;;;;;0.47;0.47;;;;;;;;;;5032746;28;20201;-84
2022/11/29 15:12:47;;;;;;;0.50;0.50;;;;;;;;;;5030305;28;20230;-86
2022/11/29 15:18:51;;;;;;;0.60;0.60;;;;;;;;;;5018597;28;20209;-85
2022/11/29 15:21:27;;;;;;;1.00;1.00;;;;;;;;;;5028419;28;20209;-86
2022/11/29 15:23:58;;;;;;;3.63;0.83;;;;;;;;;;5028519;28;20207;-85
2022/11/29 15:26:31;;;;;;;1.13;1.13;;;;;;;;;;5029016;28;20240;-85